sensor_id;sensor_type;location;lat;lon;timestamp;temperature;humidity
69677;DHT22;56914;51.058;9.326;2023-02-28T00:00:23;4.80;57.40
69677;DHT22;56914;51.058;9.326;2023-02-28T00:01:26;4.80;57.20
69677;DHT22;56914;51.058;9.326;2023-02-28T00:02:30;4.80;57.20
69677;DHT22;56914;51.058;9.326;2023-02-28T00:03:32;4.90;57.10
69677;DHT22;56914;51.058;9.326;2023-02-28T00:04:37;4.90;57.10
69677;DHT22;56914;51.058;9.326;2023-02-28T00:05:41;4.90;56.80
69677;DHT22;56914;51.058;9.326;2023-02-28T00:06:43;5.00;56.80
69677;DHT22;56914;51.058;9.326;2023-02-28T00:07:48;5.00;56.80
69677;DHT22;56914;51.058;9.326;2023-02-28T00:08:51;5.00;56.70
69677;DHT22;56914;51.058;9.326;2023-02-28T00:09:54;5.00;56.60
69677;DHT22;56914;51.058;9.326;2023-02-28T00:10:56;5.10;56.30
69677;DHT22;56914;51.058;9.326;2023-02-28T00:11:59;5.10;56.20
69677;DHT22;56914;51.058;9.326;2023-02-28T00:13:04;5.10;56.20
69677;DHT22;56914;51.058;9.326;2023-02-28T00:14:07;5.10;56.90
69677;DHT22;56914;51.058;9.326;2023-02-28T00:15:11;5.10;56.10
69677;DHT22;56914;51.058;9.326;2023-02-28T00:16:15;5.20;56.10
69677;DHT22;56914;51.058;9.326;2023-02-28T00:17:19;5.20;56.10
69677;DHT22;56914;51.058;9.326;2023-02-28T00:18:22;5.20;56.00
69677;DHT22;56914;51.058;9.326;2023-02-28T00:19:26;5.30;56.00
69677;DHT22;56914;51.058;9.326;2023-02-28T00:20:28;5.30;55.80
69677;DHT22;56914;51.058;9.326;2023-02-28T00:21:32;5.30;55.80
69677;DHT22;56914;51.058;9.326;2023-02-28T00:22:35;5.30;55.80
69677;DHT22;56914;51.058;9.326;2023-02-28T00:23:38;5.30;55.80
69677;DHT22;56914;51.058;9.326;2023-02-28T00:24:40;5.30;55.80
69677;DHT22;56914;51.058;9.326;2023-02-28T00:25:43;5.40;55.80
69677;DHT22;56914;51.058;9.326;2023-02-28T00:26:47;5.40;55.80
69677;DHT22;56914;51.058;9.326;2023-02-28T00:27:51;5.40;55.60
69677;DHT22;56914;51.058;9.326;2023-02-28T00:28:53;5.40;55.60
69677;DHT22;56914;51.058;9.326;2023-02-28T00:29:56;5.40;55.60
69677;DHT22;56914;51.058;9.326;2023-02-28T00:30:59;5.50;55.40
69677;DHT22;56914;51.058;9.326;2023-02-28T00:32:03;5.50;55.40
69677;DHT22;56914;51.058;9.326;2023-02-28T00:33:06;5.50;55.50
69677;DHT22;56914;51.058;9.326;2023-02-28T00:34:09;5.50;55.40
69677;DHT22;56914;51.058;9.326;2023-02-28T00:35:12;5.50;55.40
69677;DHT22;56914;51.058;9.326;2023-02-28T00:36:15;5.50;55.40
69677;DHT22;56914;51.058;9.326;2023-02-28T00:37:19;5.60;55.40
69677;DHT22;56914;51.058;9.326;2023-02-28T00:38:22;5.60;55.40
69677;DHT22;56914;51.058;9.326;2023-02-28T00:39:24;5.60;55.30
69677;DHT22;56914;51.058;9.326;2023-02-28T00:40:27;5.60;55.10
69677;DHT22;56914;51.058;9.326;2023-02-28T00:41:30;5.60;55.00
69677;DHT22;56914;51.058;9.326;2023-02-28T00:42:33;5.60;54.80
69677;DHT22;56914;51.058;9.326;2023-02-28T00:43:38;5.50;55.00
69677;DHT22;56914;51.058;9.326;2023-02-28T00:44:41;5.50;55.10
69677;DHT22;56914;51.058;9.326;2023-02-28T00:45:44;5.50;55.20
69677;DHT22;56914;51.058;9.326;2023-02-28T00:46:47;5.50;55.20
69677;DHT22;56914;51.058;9.326;2023-02-28T00:47:49;5.50;55.10
69677;DHT22;56914;51.058;9.326;2023-02-28T00:48:52;5.50;55.10
69677;DHT22;56914;51.058;9.326;2023-02-28T00:49:55;5.50;55.10
69677;DHT22;56914;51.058;9.326;2023-02-28T00:50:58;5.50;55.00
69677;DHT22;56914;51.058;9.326;2023-02-28T00:52:00;5.40;55.00
69677;DHT22;56914;51.058;9.326;2023-02-28T00:53:05;5.40;55.20
69677;DHT22;56914;51.058;9.326;2023-02-28T00:54:07;5.40;55.20
69677;DHT22;56914;51.058;9.326;2023-02-28T00:55:10;5.40;55.30
69677;DHT22;56914;51.058;9.326;2023-02-28T00:56:12;5.30;55.20
69677;DHT22;56914;51.058;9.326;2023-02-28T00:57:15;5.30;55.10
69677;DHT22;56914;51.058;9.326;2023-02-28T00:58:18;5.30;55.10
69677;DHT22;56914;51.058;9.326;2023-02-28T00:59:21;5.20;55.00
69677;DHT22;56914;51.058;9.326;2023-02-28T01:00:23;5.20;54.90
69677;DHT22;56914;51.058;9.326;2023-02-28T01:01:26;5.20;55.00
69677;DHT22;56914;51.058;9.326;2023-02-28T01:02:29;5.20;55.00
69677;DHT22;56914;51.058;9.326;2023-02-28T01:03:33;5.10;55.00
69677;DHT22;56914;51.058;9.326;2023-02-28T01:04:35;5.10;55.00
69677;DHT22;56914;51.058;9.326;2023-02-28T01:05:38;5.10;55.10
69677;DHT22;56914;51.058;9.326;2023-02-28T01:06:42;5.10;55.30
69677;DHT22;56914;51.058;9.326;2023-02-28T01:07:46;5.10;55.90
69677;DHT22;56914;51.058;9.326;2023-02-28T01:08:49;5.00;55.90
69677;DHT22;56914;51.058;9.326;2023-02-28T01:09:53;5.00;56.00
69677;DHT22;56914;51.058;9.326;2023-02-28T01:10:55;5.00;56.00
69677;DHT22;56914;51.058;9.326;2023-02-28T01:11:58;5.00;55.90
69677;DHT22;56914;51.058;9.326;2023-02-28T01:13:00;5.00;55.30
69677;DHT22;56914;51.058;9.326;2023-02-28T01:14:04;4.90;55.40
69677;DHT22;56914;51.058;9.326;2023-02-28T01:15:09;4.90;55.50
69677;DHT22;56914;51.058;9.326;2023-02-28T01:16:13;4.90;55.60
69677;DHT22;56914;51.058;9.326;2023-02-28T01:17:15;4.90;55.10
69677;DHT22;56914;51.058;9.326;2023-02-28T01:18:19;4.90;55.30
69677;DHT22;56914;51.058;9.326;2023-02-28T01:19:22;4.90;55.40
69677;DHT22;56914;51.058;9.326;2023-02-28T01:20:25;4.90;55.40
69677;DHT22;56914;51.058;9.326;2023-02-28T01:21:27;4.90;54.70
69677;DHT22;56914;51.058;9.326;2023-02-28T01:22:31;4.90;55.00
69677;DHT22;56914;51.058;9.326;2023-02-28T01:23:34;4.90;55.00
69677;DHT22;56914;51.058;9.326;2023-02-28T01:24:39;4.90;54.80
69677;DHT22;56914;51.058;9.326;2023-02-28T01:25:41;4.90;54.60
69677;DHT22;56914;51.058;9.326;2023-02-28T01:26:44;4.90;54.80
69677;DHT22;56914;51.058;9.326;2023-02-28T01:27:46;4.90;54.90
69677;DHT22;56914;51.058;9.326;2023-02-28T01:28:51;4.90;55.10
69677;DHT22;56914;51.058;9.326;2023-02-28T01:29:53;5.00;55.50
69677;DHT22;56914;51.058;9.326;2023-02-28T01:30:56;5.00;56.30
69677;DHT22;56914;51.058;9.326;2023-02-28T01:31:59;5.00;56.50
69677;DHT22;56914;51.058;9.326;2023-02-28T01:33:02;5.00;56.60
69677;DHT22;56914;51.058;9.326;2023-02-28T01:34:04;4.90;56.70
69677;DHT22;56914;51.058;9.326;2023-02-28T01:35:08;4.90;56.80
69677;DHT22;56914;51.058;9.326;2023-02-28T01:36:14;5.00;56.90
69677;DHT22;56914;51.058;9.326;2023-02-28T01:37:17;5.00;56.90
69677;DHT22;56914;51.058;9.326;2023-02-28T01:38:19;5.00;56.90
69677;DHT22;56914;51.058;9.326;2023-02-28T01:39:24;5.00;56.90
69677;DHT22;56914;51.058;9.326;2023-02-28T01:40:29;5.10;56.90
69677;DHT22;56914;51.058;9.326;2023-02-28T01:41:33;5.10;56.80
69677;DHT22;56914;51.058;9.326;2023-02-28T01:42:36;5.10;56.70
69677;DHT22;56914;51.058;9.326;2023-02-28T01:43:57;5.10;56.70
69677;DHT22;56914;51.058;9.326;2023-02-28T01:45:07;5.20;56.80
69677;DHT22;56914;51.058;9.326;2023-02-28T01:46:16;5.20;56.80
69677;DHT22;56914;51.058;9.326;2023-02-28T01:47:20;5.20;56.80
69677;DHT22;56914;51.058;9.326;2023-02-28T01:48:27;5.20;56.70
69677;DHT22;56914;51.058;9.326;2023-02-28T01:49:32;5.20;56.80
69677;DHT22;56914;51.058;9.326;2023-02-28T01:50:39;5.20;56.70
69677;DHT22;56914;51.058;9.326;2023-02-28T01:51:45;5.20;56.50
69677;DHT22;56914;51.058;9.326;2023-02-28T01:52:56;5.20;56.40
69677;DHT22;56914;51.058;9.326;2023-02-28T01:54:05;5.10;56.40
69677;DHT22;56914;51.058;9.326;2023-02-28T01:55:17;5.10;56.40
69677;DHT22;56914;51.058;9.326;2023-02-28T01:56:25;5.10;56.30
69677;DHT22;56914;51.058;9.326;2023-02-28T01:57:34;5.10;56.40
69677;DHT22;56914;51.058;9.326;2023-02-28T01:58:40;5.10;56.30
69677;DHT22;56914;51.058;9.326;2023-02-28T01:59:47;5.20;56.20
69677;DHT22;56914;51.058;9.326;2023-02-28T02:00:53;5.20;56.10
69677;DHT22;56914;51.058;9.326;2023-02-28T02:01:56;5.20;55.60
69677;DHT22;56914;51.058;9.326;2023-02-28T02:03:05;5.20;55.70
69677;DHT22;56914;51.058;9.326;2023-02-28T02:04:08;5.20;55.70
69677;DHT22;56914;51.058;9.326;2023-02-28T02:05:15;5.20;55.60
69677;DHT22;56914;51.058;9.326;2023-02-28T02:06:17;5.20;55.70
69677;DHT22;56914;51.058;9.326;2023-02-28T02:07:23;5.20;55.60
69677;DHT22;56914;51.058;9.326;2023-02-28T02:08:29;5.20;55.50
69677;DHT22;56914;51.058;9.326;2023-02-28T02:09:32;5.20;55.60
69677;DHT22;56914;51.058;9.326;2023-02-28T02:10:40;5.20;55.40
69677;DHT22;56914;51.058;9.326;2023-02-28T02:11:47;5.20;55.20
69677;DHT22;56914;51.058;9.326;2023-02-28T02:14:48;5.20;54.90
69677;DHT22;56914;51.058;9.326;2023-02-28T02:16:06;5.20;54.60
69677;DHT22;56914;51.058;9.326;2023-02-28T02:17:25;5.20;54.60
69677;DHT22;56914;51.058;9.326;2023-02-28T02:18:38;5.20;54.80
69677;DHT22;56914;51.058;9.326;2023-02-28T02:20:16;5.20;54.90
69677;DHT22;56914;51.058;9.326;2023-02-28T02:22:01;5.20;55.00
69677;DHT22;56914;51.058;9.326;2023-02-28T02:25:12;5.10;54.40
69677;DHT22;56914;51.058;9.326;2023-02-28T02:26:42;5.10;54.40
69677;DHT22;56914;51.058;9.326;2023-02-28T02:28:09;5.10;54.30
69677;DHT22;56914;51.058;9.326;2023-02-28T02:31:40;5.00;54.40
69677;DHT22;56914;51.058;9.326;2023-02-28T02:33:16;5.00;54.30
69677;DHT22;56914;51.058;9.326;2023-02-28T02:34:40;5.00;54.40
69677;DHT22;56914;51.058;9.326;2023-02-28T02:35:50;5.00;54.20
69677;DHT22;56914;51.058;9.326;2023-02-28T02:37:07;5.00;54.00
69677;DHT22;56914;51.058;9.326;2023-02-28T02:38:18;5.00;53.90
69677;DHT22;56914;51.058;9.326;2023-02-28T02:39:31;4.90;53.90
69677;DHT22;56914;51.058;9.326;2023-02-28T02:40:44;4.90;53.80
69677;DHT22;56914;51.058;9.326;2023-02-28T02:41:52;4.90;53.80
69677;DHT22;56914;51.058;9.326;2023-02-28T02:43:01;4.80;53.60
69677;DHT22;56914;51.058;9.326;2023-02-28T02:44:13;4.80;53.70
69677;DHT22;56914;51.058;9.326;2023-02-28T02:45:26;4.80;54.00
69677;DHT22;56914;51.058;9.326;2023-02-28T02:46:34;4.80;53.90
69677;DHT22;56914;51.058;9.326;2023-02-28T02:47:41;4.70;53.70
69677;DHT22;56914;51.058;9.326;2023-02-28T02:48:46;4.70;53.80
69677;DHT22;56914;51.058;9.326;2023-02-28T02:49:55;4.70;53.90
69677;DHT22;56914;51.058;9.326;2023-02-28T02:51:03;4.70;54.20
69677;DHT22;56914;51.058;9.326;2023-02-28T02:52:10;4.70;54.10
69677;DHT22;56914;51.058;9.326;2023-02-28T02:53:18;4.70;54.10
69677;DHT22;56914;51.058;9.326;2023-02-28T02:54:27;4.70;53.90
69677;DHT22;56914;51.058;9.326;2023-02-28T02:55:38;4.80;54.00
69677;DHT22;56914;51.058;9.326;2023-02-28T02:56:46;4.70;53.90
69677;DHT22;56914;51.058;9.326;2023-02-28T02:57:53;4.80;54.00
69677;DHT22;56914;51.058;9.326;2023-02-28T02:59:03;4.80;54.00
69677;DHT22;56914;51.058;9.326;2023-02-28T03:00:08;4.80;54.00
69677;DHT22;56914;51.058;9.326;2023-02-28T03:01:17;4.80;54.10
69677;DHT22;56914;51.058;9.326;2023-02-28T03:02:30;4.90;54.10
69677;DHT22;56914;51.058;9.326;2023-02-28T03:03:37;4.90;54.00
69677;DHT22;56914;51.058;9.326;2023-02-28T03:04:43;4.90;54.00
69677;DHT22;56914;51.058;9.326;2023-02-28T03:05:50;4.90;54.30
69677;DHT22;56914;51.058;9.326;2023-02-28T03:06:53;4.90;54.30
69677;DHT22;56914;51.058;9.326;2023-02-28T03:07:57;4.90;54.20
69677;DHT22;56914;51.058;9.326;2023-02-28T03:09:00;4.80;54.00
69677;DHT22;56914;51.058;9.326;2023-02-28T03:11:45;4.90;54.40
69677;DHT22;56914;51.058;9.326;2023-02-28T03:12:58;4.90;54.40
69677;DHT22;56914;51.058;9.326;2023-02-28T03:14:26;4.90;54.40
69677;DHT22;56914;51.058;9.326;2023-02-28T03:15:37;5.00;54.40
69677;DHT22;56914;51.058;9.326;2023-02-28T03:17:04;4.90;54.40
69677;DHT22;56914;51.058;9.326;2023-02-28T03:18:18;5.00;54.50
69677;DHT22;56914;51.058;9.326;2023-02-28T03:19:37;5.00;54.50
69677;DHT22;56914;51.058;9.326;2023-02-28T03:20:56;5.00;54.40
69677;DHT22;56914;51.058;9.326;2023-02-28T03:22:23;5.00;53.90
69677;DHT22;56914;51.058;9.326;2023-02-28T03:23:36;5.00;54.10
69677;DHT22;56914;51.058;9.326;2023-02-28T03:24:48;5.10;53.90
69677;DHT22;56914;51.058;9.326;2023-02-28T03:25:57;5.00;53.90
69677;DHT22;56914;51.058;9.326;2023-02-28T03:27:09;5.10;53.90
69677;DHT22;56914;51.058;9.326;2023-02-28T03:28:20;5.00;54.00
69677;DHT22;56914;51.058;9.326;2023-02-28T03:29:31;5.00;53.90
69677;DHT22;56914;51.058;9.326;2023-02-28T03:30:41;5.00;53.90
69677;DHT22;56914;51.058;9.326;2023-02-28T03:31:53;5.00;53.80
69677;DHT22;56914;51.058;9.326;2023-02-28T03:33:05;5.10;54.00
69677;DHT22;56914;51.058;9.326;2023-02-28T03:34:14;5.10;54.00
69677;DHT22;56914;51.058;9.326;2023-02-28T03:35:22;5.10;53.90
69677;DHT22;56914;51.058;9.326;2023-02-28T03:36:30;5.10;53.90
69677;DHT22;56914;51.058;9.326;2023-02-28T03:37:37;5.10;53.40
69677;DHT22;56914;51.058;9.326;2023-02-28T03:38:46;5.10;53.60
69677;DHT22;56914;51.058;9.326;2023-02-28T03:39:56;5.10;53.70
69677;DHT22;56914;51.058;9.326;2023-02-28T03:41:06;5.10;52.90
69677;DHT22;56914;51.058;9.326;2023-02-28T03:42:13;5.00;53.10
69677;DHT22;56914;51.058;9.326;2023-02-28T03:43:23;5.00;53.10
69677;DHT22;56914;51.058;9.326;2023-02-28T03:44:32;5.00;53.10
69677;DHT22;56914;51.058;9.326;2023-02-28T03:45:39;5.00;53.30
69677;DHT22;56914;51.058;9.326;2023-02-28T03:46:49;5.00;53.50
69677;DHT22;56914;51.058;9.326;2023-02-28T03:48:00;5.00;53.60
69677;DHT22;56914;51.058;9.326;2023-02-28T03:49:11;5.00;53.60
69677;DHT22;56914;51.058;9.326;2023-02-28T03:50:20;5.00;53.70
69677;DHT22;56914;51.058;9.326;2023-02-28T03:51:29;5.00;53.40
69677;DHT22;56914;51.058;9.326;2023-02-28T03:52:38;5.00;53.40
69677;DHT22;56914;51.058;9.326;2023-02-28T03:53:47;5.10;53.50
69677;DHT22;56914;51.058;9.326;2023-02-28T03:54:59;5.00;53.40
69677;DHT22;56914;51.058;9.326;2023-02-28T03:56:11;5.00;53.40
69677;DHT22;56914;51.058;9.326;2023-02-28T03:57:22;5.00;53.60
69677;DHT22;56914;51.058;9.326;2023-02-28T03:58:32;5.00;53.80
69677;DHT22;56914;51.058;9.326;2023-02-28T03:59:42;5.00;53.60
69677;DHT22;56914;51.058;9.326;2023-02-28T04:00:52;4.90;53.60
69677;DHT22;56914;51.058;9.326;2023-02-28T04:01:58;4.90;53.70
69677;DHT22;56914;51.058;9.326;2023-02-28T04:03:01;5.00;53.70
69677;DHT22;56914;51.058;9.326;2023-02-28T04:04:05;4.90;53.60
69677;DHT22;56914;51.058;9.326;2023-02-28T04:05:08;4.90;54.20
69677;DHT22;56914;51.058;9.326;2023-02-28T04:06:16;5.00;53.80
69677;DHT22;56914;51.058;9.326;2023-02-28T04:07:21;4.90;53.60
69677;DHT22;56914;51.058;9.326;2023-02-28T04:08:24;4.90;53.60
69677;DHT22;56914;51.058;9.326;2023-02-28T04:09:26;4.90;53.60
69677;DHT22;56914;51.058;9.326;2023-02-28T04:10:30;4.80;53.50
69677;DHT22;56914;51.058;9.326;2023-02-28T04:11:35;4.90;53.70
69677;DHT22;56914;51.058;9.326;2023-02-28T04:12:38;4.90;53.50
69677;DHT22;56914;51.058;9.326;2023-02-28T04:13:40;4.90;53.60
69677;DHT22;56914;51.058;9.326;2023-02-28T04:14:43;4.90;53.80
69677;DHT22;56914;51.058;9.326;2023-02-28T04:15:46;4.80;54.10
69677;DHT22;56914;51.058;9.326;2023-02-28T04:16:49;4.70;54.40
69677;DHT22;56914;51.058;9.326;2023-02-28T04:17:53;4.80;54.50
69677;DHT22;56914;51.058;9.326;2023-02-28T04:18:56;4.80;54.40
69677;DHT22;56914;51.058;9.326;2023-02-28T04:20:04;4.80;54.30
69677;DHT22;56914;51.058;9.326;2023-02-28T04:21:11;4.80;54.50
69677;DHT22;56914;51.058;9.326;2023-02-28T04:22:14;4.70;54.30
69677;DHT22;56914;51.058;9.326;2023-02-28T04:23:20;4.70;54.30
69677;DHT22;56914;51.058;9.326;2023-02-28T04:24:26;4.80;54.20
69677;DHT22;56914;51.058;9.326;2023-02-28T04:25:29;4.70;54.10
69677;DHT22;56914;51.058;9.326;2023-02-28T04:26:33;4.70;54.00
69677;DHT22;56914;51.058;9.326;2023-02-28T04:27:36;4.70;53.90
69677;DHT22;56914;51.058;9.326;2023-02-28T04:28:38;4.70;54.00
69677;DHT22;56914;51.058;9.326;2023-02-28T04:29:42;4.70;54.70
69677;DHT22;56914;51.058;9.326;2023-02-28T04:30:46;4.70;53.90
69677;DHT22;56914;51.058;9.326;2023-02-28T04:31:50;4.70;54.10
69677;DHT22;56914;51.058;9.326;2023-02-28T04:32:52;4.70;54.20
69677;DHT22;56914;51.058;9.326;2023-02-28T04:33:56;4.70;54.10
69677;DHT22;56914;51.058;9.326;2023-02-28T04:34:58;4.70;54.00
69677;DHT22;56914;51.058;9.326;2023-02-28T04:36:02;4.70;53.40
69677;DHT22;56914;51.058;9.326;2023-02-28T04:37:06;4.60;53.50
69677;DHT22;56914;51.058;9.326;2023-02-28T04:38:15;4.60;53.50
69677;DHT22;56914;51.058;9.326;2023-02-28T04:39:18;4.60;53.70
69677;DHT22;56914;51.058;9.326;2023-02-28T04:40:21;4.70;53.80
69677;DHT22;56914;51.058;9.326;2023-02-28T04:41:24;4.70;53.60
69677;DHT22;56914;51.058;9.326;2023-02-28T04:42:29;4.70;53.90
69677;DHT22;56914;51.058;9.326;2023-02-28T04:43:37;4.70;54.00
69677;DHT22;56914;51.058;9.326;2023-02-28T04:44:40;4.70;54.00
69677;DHT22;56914;51.058;9.326;2023-02-28T04:45:43;4.70;54.00
69677;DHT22;56914;51.058;9.326;2023-02-28T04:46:48;4.70;54.00
69677;DHT22;56914;51.058;9.326;2023-02-28T04:47:50;4.70;54.00
69677;DHT22;56914;51.058;9.326;2023-02-28T04:48:53;4.70;53.90
69677;DHT22;56914;51.058;9.326;2023-02-28T04:49:56;4.70;53.70
69677;DHT22;56914;51.058;9.326;2023-02-28T04:51:00;4.60;54.10
69677;DHT22;56914;51.058;9.326;2023-02-28T04:52:03;4.60;54.30
69677;DHT22;56914;51.058;9.326;2023-02-28T04:53:06;4.60;54.30
69677;DHT22;56914;51.058;9.326;2023-02-28T04:54:09;4.60;54.30
69677;DHT22;56914;51.058;9.326;2023-02-28T04:55:13;4.60;54.40
69677;DHT22;56914;51.058;9.326;2023-02-28T04:56:17;4.60;54.60
69677;DHT22;56914;51.058;9.326;2023-02-28T04:57:20;4.60;54.60
69677;DHT22;56914;51.058;9.326;2023-02-28T04:58:22;4.60;54.60
69677;DHT22;56914;51.058;9.326;2023-02-28T04:59:26;4.60;54.70
69677;DHT22;56914;51.058;9.326;2023-02-28T05:00:28;4.60;54.80
69677;DHT22;56914;51.058;9.326;2023-02-28T05:01:33;4.60;54.80
69677;DHT22;56914;51.058;9.326;2023-02-28T05:02:36;4.60;54.90
69677;DHT22;56914;51.058;9.326;2023-02-28T05:03:40;4.60;54.90
69677;DHT22;56914;51.058;9.326;2023-02-28T05:04:42;4.60;54.70
69677;DHT22;56914;51.058;9.326;2023-02-28T05:05:45;4.60;54.50
69677;DHT22;56914;51.058;9.326;2023-02-28T05:06:47;4.60;54.50
69677;DHT22;56914;51.058;9.326;2023-02-28T05:07:51;4.70;54.30
69677;DHT22;56914;51.058;9.326;2023-02-28T05:08:54;4.70;54.30
69677;DHT22;56914;51.058;9.326;2023-02-28T05:09:58;4.70;54.40
69677;DHT22;56914;51.058;9.326;2023-02-28T05:11:03;4.70;54.20
69677;DHT22;56914;51.058;9.326;2023-02-28T05:12:07;4.60;54.30
69677;DHT22;56914;51.058;9.326;2023-02-28T05:13:12;4.60;54.50
69677;DHT22;56914;51.058;9.326;2023-02-28T05:14:14;4.60;54.60
69677;DHT22;56914;51.058;9.326;2023-02-28T05:15:18;4.60;54.60
69677;DHT22;56914;51.058;9.326;2023-02-28T05:16:20;4.60;54.60
69677;DHT22;56914;51.058;9.326;2023-02-28T05:17:24;4.70;54.60
69677;DHT22;56914;51.058;9.326;2023-02-28T05:18:26;4.70;54.60
69677;DHT22;56914;51.058;9.326;2023-02-28T05:19:29;4.70;54.60
69677;DHT22;56914;51.058;9.326;2023-02-28T05:20:32;4.70;54.60
69677;DHT22;56914;51.058;9.326;2023-02-28T05:21:37;4.70;54.50
69677;DHT22;56914;51.058;9.326;2023-02-28T05:22:43;4.80;54.60
69677;DHT22;56914;51.058;9.326;2023-02-28T05:23:46;4.80;55.30
69677;DHT22;56914;51.058;9.326;2023-02-28T05:24:49;4.80;54.60
69677;DHT22;56914;51.058;9.326;2023-02-28T05:25:52;4.80;54.60
69677;DHT22;56914;51.058;9.326;2023-02-28T05:26:57;4.90;55.30
69677;DHT22;56914;51.058;9.326;2023-02-28T05:27:59;4.90;54.50
69677;DHT22;56914;51.058;9.326;2023-02-28T05:29:03;4.90;54.30
69677;DHT22;56914;51.058;9.326;2023-02-28T05:30:06;4.80;54.40
69677;DHT22;56914;51.058;9.326;2023-02-28T05:31:13;4.80;54.60
69677;DHT22;56914;51.058;9.326;2023-02-28T05:32:15;4.90;54.50
69677;DHT22;56914;51.058;9.326;2023-02-28T05:33:18;4.90;53.60
69677;DHT22;56914;51.058;9.326;2023-02-28T05:34:20;4.80;53.10
69677;DHT22;56914;51.058;9.326;2023-02-28T05:35:26;4.80;53.10
69677;DHT22;56914;51.058;9.326;2023-02-28T05:36:28;4.80;53.60
69677;DHT22;56914;51.058;9.326;2023-02-28T05:37:31;4.80;53.00
69677;DHT22;56914;51.058;9.326;2023-02-28T05:38:34;4.80;53.20
69677;DHT22;56914;51.058;9.326;2023-02-28T05:39:40;4.80;52.80
69677;DHT22;56914;51.058;9.326;2023-02-28T05:40:42;4.70;52.70
69677;DHT22;56914;51.058;9.326;2023-02-28T05:41:45;4.70;52.40
69677;DHT22;56914;51.058;9.326;2023-02-28T05:42:51;4.70;52.90
69677;DHT22;56914;51.058;9.326;2023-02-28T05:43:54;4.70;52.90
69677;DHT22;56914;51.058;9.326;2023-02-28T05:44:57;4.70;52.40
69677;DHT22;56914;51.058;9.326;2023-02-28T05:46:04;4.60;52.50
69677;DHT22;56914;51.058;9.326;2023-02-28T05:47:07;4.60;53.00
69677;DHT22;56914;51.058;9.326;2023-02-28T05:48:10;4.60;53.10
69677;DHT22;56914;51.058;9.326;2023-02-28T05:49:12;4.70;53.30
69677;DHT22;56914;51.058;9.326;2023-02-28T05:50:16;4.70;53.10
69677;DHT22;56914;51.058;9.326;2023-02-28T05:51:18;4.70;52.90
69677;DHT22;56914;51.058;9.326;2023-02-28T05:52:21;4.70;53.30
69677;DHT22;56914;51.058;9.326;2023-02-28T05:53:24;4.70;52.80
69677;DHT22;56914;51.058;9.326;2023-02-28T05:54:28;4.70;52.80
69677;DHT22;56914;51.058;9.326;2023-02-28T05:55:30;4.70;52.30
69677;DHT22;56914;51.058;9.326;2023-02-28T05:56:33;4.70;52.50
69677;DHT22;56914;51.058;9.326;2023-02-28T05:57:37;4.80;52.70
69677;DHT22;56914;51.058;9.326;2023-02-28T05:58:42;4.80;52.20
69677;DHT22;56914;51.058;9.326;2023-02-28T05:59:44;4.80;51.70
69677;DHT22;56914;51.058;9.326;2023-02-28T06:00:48;4.70;51.60
69677;DHT22;56914;51.058;9.326;2023-02-28T06:01:50;4.70;51.50
69677;DHT22;56914;51.058;9.326;2023-02-28T06:02:55;4.70;52.20
69677;DHT22;56914;51.058;9.326;2023-02-28T06:04:00;4.70;51.50
69677;DHT22;56914;51.058;9.326;2023-02-28T06:05:04;4.70;51.60
69677;DHT22;56914;51.058;9.326;2023-02-28T06:06:07;4.70;51.50
69677;DHT22;56914;51.058;9.326;2023-02-28T06:07:11;4.70;51.30
69677;DHT22;56914;51.058;9.326;2023-02-28T06:08:14;4.70;50.90
69677;DHT22;56914;51.058;9.326;2023-02-28T06:09:20;4.80;51.00
69677;DHT22;56914;51.058;9.326;2023-02-28T06:10:23;4.80;51.00
69677;DHT22;56914;51.058;9.326;2023-02-28T06:11:26;4.80;50.80
69677;DHT22;56914;51.058;9.326;2023-02-28T06:12:30;4.80;49.80
69677;DHT22;56914;51.058;9.326;2023-02-28T06:13:33;4.80;50.20
69677;DHT22;56914;51.058;9.326;2023-02-28T06:14:37;4.80;50.10
69677;DHT22;56914;51.058;9.326;2023-02-28T06:15:40;4.80;50.10
69677;DHT22;56914;51.058;9.326;2023-02-28T06:16:43;4.80;50.10
69677;DHT22;56914;51.058;9.326;2023-02-28T06:17:47;4.80;50.40
69677;DHT22;56914;51.058;9.326;2023-02-28T06:18:53;4.80;50.60
69677;DHT22;56914;51.058;9.326;2023-02-28T06:19:57;4.80;51.00
69677;DHT22;56914;51.058;9.326;2023-02-28T06:21:01;4.80;51.30
69677;DHT22;56914;51.058;9.326;2023-02-28T06:22:03;4.70;51.70
69677;DHT22;56914;51.058;9.326;2023-02-28T06:23:06;4.70;52.10
69677;DHT22;56914;51.058;9.326;2023-02-28T06:24:09;4.70;52.10
69677;DHT22;56914;51.058;9.326;2023-02-28T06:25:13;4.60;52.30
69677;DHT22;56914;51.058;9.326;2023-02-28T06:26:16;4.60;52.40
69677;DHT22;56914;51.058;9.326;2023-02-28T06:27:19;4.60;52.40
69677;DHT22;56914;51.058;9.326;2023-02-28T06:28:22;4.60;52.40
69677;DHT22;56914;51.058;9.326;2023-02-28T06:29:25;4.60;52.30
69677;DHT22;56914;51.058;9.326;2023-02-28T06:30:29;4.60;52.20
69677;DHT22;56914;51.058;9.326;2023-02-28T06:31:33;4.60;52.40
69677;DHT22;56914;51.058;9.326;2023-02-28T06:32:36;4.50;52.30
69677;DHT22;56914;51.058;9.326;2023-02-28T06:33:40;4.50;52.30
69677;DHT22;56914;51.058;9.326;2023-02-28T06:34:43;4.50;52.30
69677;DHT22;56914;51.058;9.326;2023-02-28T06:35:47;4.50;52.40
69677;DHT22;56914;51.058;9.326;2023-02-28T06:36:56;4.50;52.30
69677;DHT22;56914;51.058;9.326;2023-02-28T06:38:03;4.50;52.40
69677;DHT22;56914;51.058;9.326;2023-02-28T06:39:07;4.50;52.60
69677;DHT22;56914;51.058;9.326;2023-02-28T06:40:11;4.40;52.40
69677;DHT22;56914;51.058;9.326;2023-02-28T06:41:18;4.40;52.60
69677;DHT22;56914;51.058;9.326;2023-02-28T06:42:25;4.40;52.70
69677;DHT22;56914;51.058;9.326;2023-02-28T06:43:33;4.40;52.70
69677;DHT22;56914;51.058;9.326;2023-02-28T06:44:38;4.30;52.60
69677;DHT22;56914;51.058;9.326;2023-02-28T06:45:45;4.30;52.80
69677;DHT22;56914;51.058;9.326;2023-02-28T06:46:48;4.30;52.70
69677;DHT22;56914;51.058;9.326;2023-02-28T06:47:52;4.30;52.90
69677;DHT22;56914;51.058;9.326;2023-02-28T06:48:55;4.30;53.00
69677;DHT22;56914;51.058;9.326;2023-02-28T06:49:58;4.20;53.00
69677;DHT22;56914;51.058;9.326;2023-02-28T06:51:06;4.30;53.20
69677;DHT22;56914;51.058;9.326;2023-02-28T06:52:09;4.30;53.40
69677;DHT22;56914;51.058;9.326;2023-02-28T06:53:12;4.30;53.50
69677;DHT22;56914;51.058;9.326;2023-02-28T06:54:16;4.20;53.30
69677;DHT22;56914;51.058;9.326;2023-02-28T06:55:18;4.20;53.50
69677;DHT22;56914;51.058;9.326;2023-02-28T06:56:22;4.20;53.50
69677;DHT22;56914;51.058;9.326;2023-02-28T06:57:28;4.10;53.60
69677;DHT22;56914;51.058;9.326;2023-02-28T06:58:36;4.10;53.70
69677;DHT22;56914;51.058;9.326;2023-02-28T06:59:40;4.10;54.50
69677;DHT22;56914;51.058;9.326;2023-02-28T07:00:45;4.10;53.90
69677;DHT22;56914;51.058;9.326;2023-02-28T07:01:48;4.00;54.00
69677;DHT22;56914;51.058;9.326;2023-02-28T07:02:51;4.00;53.90
69677;DHT22;56914;51.058;9.326;2023-02-28T07:04:00;4.00;53.80
69677;DHT22;56914;51.058;9.326;2023-02-28T07:05:06;4.00;53.90
69677;DHT22;56914;51.058;9.326;2023-02-28T07:06:10;4.00;54.10
69677;DHT22;56914;51.058;9.326;2023-02-28T07:07:13;3.90;54.20
69677;DHT22;56914;51.058;9.326;2023-02-28T07:08:16;3.90;54.20
69677;DHT22;56914;51.058;9.326;2023-02-28T07:09:19;3.90;54.10